Time;durP1;ratioP1;P1;durP2;ratioP2;P2;SDS_P1;SDS_P2;PMS_P1;PMS_P2;Temp;Humidity;BMP_temperature;BMP_pressure;BME280_temperature;BME280_humidity;BME280_pressure;Samples;Min_cycle;Max_cycle;Signal;HPM_P1;HPM_P2
2023/01/26 00:02:02;;;;;;;71.30;30.80;;;2.60;99.90;;;;;;4914391;29;20638;-79
2023/01/26 00:04:27;;;;;;;73.10;32.40;;;2.60;99.90;;;;;;4911937;29;20266;-82
2023/01/26 00:06:53;;;;;;;60.67;31.50;;;2.60;99.90;;;;;;4908850;29;20184;-81
2023/01/26 00:09:18;;;;;;;67.30;30.83;;;2.60;99.90;;;;;;4918931;29;20711;-81
2023/01/26 00:11:44;;;;;;;68.83;32.83;;;2.60;99.90;;;;;;4919372;29;20184;-82
2023/01/26 00:14:10;;;;;;;76.63;33.23;;;2.70;99.90;;;;;;4912915;29;20186;-77
2023/01/26 00:16:35;;;;;;;72.27;32.90;;;2.60;99.90;;;;;;4910664;29;20191;-80
2023/01/26 00:19:01;;;;;;;65.30;31.60;;;2.50;99.90;;;;;;4912425;29;20211;-81
2023/01/26 00:21:27;;;;;;;64.90;31.87;;;2.40;99.90;;;;;;4910282;29;20202;-81
2023/01/26 00:23:52;;;;;;;80.57;34.50;;;2.40;99.90;;;;;;4889622;29;20966;-82
2023/01/26 00:26:21;;;;;;;65.33;33.23;;;2.50;99.90;;;;;;4904333;29;20614;-81
2023/01/26 00:28:47;;;;;;;65.57;30.37;;;2.50;99.90;;;;;;4902650;29;20204;-80
2023/01/26 00:31:24;;;;;;;77.80;33.67;;;2.50;99.90;;;;;;4915039;29;20487;-81
2023/01/26 00:33:51;;;;;;;63.93;30.37;;;2.40;99.90;;;;;;4904839;29;20943;-80
2023/01/26 00:36:17;;;;;;;74.17;33.27;;;2.30;99.90;;;;;;4913750;29;20514;-80
2023/01/26 00:38:43;;;;;;;73.60;32.73;;;2.40;99.90;;;;;;4908328;29;20861;-82
2023/01/26 00:42:05;;;;;;;67.90;30.77;;;2.60;99.90;;;;;;4910659;29;20529;-84
2023/01/26 00:43:55;;;;;;;78.33;34.47;;;2.50;99.90;;;;;;4912906;29;20204;-83
2023/01/26 00:46:20;;;;;;;64.07;30.07;;;2.40;99.90;;;;;;4908182;29;20425;-83
2023/01/26 00:48:46;;;;;;;73.87;31.10;;;2.40;99.90;;;;;;4913046;29;20218;-82
2023/01/26 00:51:11;;;;;;;73.10;33.00;;;2.30;99.90;;;;;;4911148;29;20194;-79
2023/01/26 00:53:37;;;;;;;67.93;30.83;;;2.40;99.90;;;;;;4914163;29;20195;-79
2023/01/26 00:56:02;;;;;;;79.50;33.17;;;2.20;99.90;;;;;;4917547;29;20277;-81
2023/01/26 00:58:28;;;;;;;76.37;32.20;;;2.20;99.90;;;;;;4912003;29;20628;-80
2023/01/26 01:00:53;;;;;;;81.80;33.97;;;2.20;99.90;;;;;;4909107;29;20191;-84
2023/01/26 01:03:19;;;;;;;82.33;31.80;;;2.20;99.90;;;;;;4912650;29;20190;-83
2023/01/26 01:05:44;;;;;;;70.90;29.57;;;2.10;99.90;;;;;;4909263;29;20531;-83
2023/01/26 01:08:10;;;;;;;74.27;32.30;;;2.10;99.90;;;;;;4909054;29;20181;-80
2023/01/26 01:10:35;;;;;;;77.27;32.60;;;2.20;99.90;;;;;;4911968;29;20216;-80
2023/01/26 01:13:01;;;;;;;73.97;32.57;;;2.30;99.90;;;;;;4908335;29;20213;-80
2023/01/26 01:15:26;;;;;;;71.27;31.60;;;2.20;99.90;;;;;;4906873;29;20244;-79
2023/01/26 01:17:52;;;;;;;80.37;30.37;;;2.20;99.90;;;;;;4909724;29;20671;-80
2023/01/26 01:20:17;;;;;;;74.53;33.40;;;2.20;99.90;;;;;;4911234;29;20194;-81
2023/01/26 01:22:43;;;;;;;80.57;34.97;;;2.20;99.90;;;;;;4920488;29;20187;-79
2023/01/26 01:25:09;;;;;;;71.67;30.13;;;2.30;99.90;;;;;;4903166;29;20192;-81
2023/01/26 01:27:34;;;;;;;80.30;34.20;;;2.20;99.90;;;;;;4916756;29;20199;-82
2023/01/26 01:30:00;;;;;;;82.83;34.80;;;2.20;99.90;;;;;;4915297;29;20580;-81
2023/01/26 01:32:26;;;;;;;95.40;36.40;;;2.20;99.90;;;;;;4909115;29;20259;-80
2023/01/26 01:34:51;;;;;;;78.00;31.50;;;2.10;99.90;;;;;;4908536;29;20241;-80
2023/01/26 01:37:17;;;;;;;85.97;35.37;;;2.10;99.90;;;;;;4910258;29;20196;-80
2023/01/26 01:39:42;;;;;;;84.17;36.07;;;2.10;99.90;;;;;;4909434;29;20199;-82
2023/01/26 01:42:08;;;;;;;83.10;32.20;;;2.10;99.90;;;;;;4913403;29;20192;-83
2023/01/26 01:44:35;;;;;;;77.27;33.10;;;2.10;99.90;;;;;;4906884;29;20604;-81
2023/01/26 01:47:25;;;;;;;83.00;34.00;;;2.10;99.90;;;;;;4916243;29;20442;-79
2023/01/26 01:49:52;;;;;;;82.23;33.80;;;2.10;99.90;;;;;;4904708;29;21039;-81
2023/01/26 01:52:31;;;;;;;84.53;36.03;;;2.10;99.90;;;;;;4917807;29;20443;-82
2023/01/26 01:55:06;;;;;;;74.93;33.10;;;2.10;99.90;;;;;;4916484;29;20939;-82
2023/01/26 01:57:46;;;;;;;72.87;30.33;;;2.10;99.90;;;;;;4909488;29;20435;-82
2023/01/26 02:00:17;;;;;;;72.00;32.57;;;2.10;99.90;;;;;;4912839;29;20455;-87
2023/01/26 02:03:09;;;;;;;70.60;31.47;;;2.20;99.90;;;;;;4911041;29;20975;-87
2023/01/26 02:05:34;;;;;;;79.80;31.40;;;2.20;99.90;;;;;;4907850;29;20438;-86
2023/01/26 02:08:01;;;;;;;79.90;31.70;;;2.20;99.90;;;;;;4907412;29;20575;-86
2023/01/26 02:10:28;;;;;;;78.27;32.00;;;2.20;99.90;;;;;;4905610;29;20475;-85
2023/01/26 02:12:59;;;;;;;84.33;32.23;;;2.20;99.90;;;;;;4907182;29;20437;-86
2023/01/26 02:15:26;;;;;;;83.67;31.57;;;2.30;99.90;;;;;;4898495;29;20518;-86
2023/01/26 02:17:53;;;;;;;63.73;28.30;;;2.30;99.90;;;;;;4907616;29;20438;-86
2023/01/26 02:20:31;;;;;;;83.70;31.27;;;2.20;99.90;;;;;;4907958;29;20438;-87
2023/01/26 02:23:21;;;;;;;78.63;31.10;;;2.20;99.90;;;;;;4906136;29;20824;-79
2023/01/26 02:25:52;;;;;;;90.70;34.97;;;2.20;99.90;;;;;;4908560;29;20438;-80
2023/01/26 02:28:23;;;;;;;76.77;31.30;;;2.20;99.90;;;;;;4908171;29;20433;-80
2023/01/26 02:30:49;;;;;;;86.97;32.00;;;2.30;99.90;;;;;;4909205;29;20491;-81
2023/01/26 02:33:17;;;;;;;73.90;31.63;;;2.30;99.90;;;;;;4907659;29;20498;-82
2023/01/26 02:35:43;;;;;;;74.43;30.20;;;2.30;99.90;;;;;;4889537;29;20511;-82
2023/01/26 02:38:08;;;;;;;79.37;30.00;;;2.30;99.90;;;;;;4907941;29;20474;-83
2023/01/26 02:40:47;;;;;;;66.87;27.73;;;2.30;99.90;;;;;;4909928;29;20211;-84
2023/01/26 02:43:13;;;;;;;68.73;28.50;;;2.30;99.90;;;;;;4904746;29;20185;-89
2023/01/26 02:45:39;;;;;;;61.97;27.93;;;2.30;99.90;;;;;;4904773;29;20456;-86
2023/01/26 02:48:06;;;;;;;58.93;28.57;;;2.30;99.90;;;;;;4904928;29;20258;-79
2023/01/26 02:50:32;;;;;;;79.27;27.97;;;2.40;99.90;;;;;;4911078;29;20493;-79
2023/01/26 02:52:58;;;;;;;59.07;25.30;;;2.30;99.90;;;;;;4904263;29;20784;-79
2023/01/26 02:55:25;;;;;;;69.87;27.50;;;2.20;99.90;;;;;;4904988;29;20855;-79
2023/01/26 02:58:02;;;;;;;61.10;25.47;;;2.30;99.90;;;;;;4908806;29;20258;-79
2023/01/26 03:00:31;;;;;;;60.27;26.97;;;2.30;99.90;;;;;;4909907;29;20468;-78
2023/01/26 03:02:59;;;;;;;62.93;25.37;;;2.20;99.90;;;;;;4905932;29;20428;-79
2023/01/26 03:05:31;;;;;;;54.53;24.70;;;2.20;99.90;;;;;;4908278;29;20469;-78
2023/01/26 03:07:56;;;;;;;61.23;26.37;;;2.20;99.90;;;;;;4903449;29;20484;-78
2023/01/26 03:10:24;;;;;;;70.77;28.60;;;2.30;99.90;;;;;;4890920;29;20483;-78
2023/01/26 03:12:49;;;;;;;63.63;26.57;;;2.30;99.90;;;;;;4916485;29;20719;-78
2023/01/26 03:29:01;;;;;;;72.10;30.57;;;2.50;99.90;;;;;;4912930;29;20525;-80
2023/01/26 03:31:26;;;;;;;75.17;30.30;;;2.50;99.90;;;;;;4911258;29;20488;-81
2023/01/26 03:33:52;;;;;;;77.77;29.07;;;2.50;99.90;;;;;;4917162;29;20180;-79
2023/01/26 03:36:17;;;;;;;63.17;29.13;;;2.40;99.90;;;;;;4920436;29;20525;-79
2023/01/26 03:38:43;;;;;;;70.03;28.93;;;2.50;99.90;;;;;;4915423;29;20529;-79
2023/01/26 05:33:09;;;;;;;77.50;29.97;;;2.60;99.90;;;;;;4877389;29;20481;-79
2023/01/26 05:35:35;;;;;;;78.00;33.90;;;2.60;99.90;;;;;;4877232;29;20804;-79
2023/01/26 05:38:00;;;;;;;93.13;35.57;;;2.60;99.90;;;;;;4878897;29;20482;-76
2023/01/26 05:40:26;;;;;;;84.37;34.53;;;2.60;99.90;;;;;;4875363;29;20445;-77
2023/01/26 05:42:53;;;;;;;82.57;33.37;;;2.60;99.90;;;;;;4861828;29;20566;-78
2023/01/26 05:45:19;;;;;;;81.70;32.40;;;2.60;99.90;;;;;;4861553;29;20923;-84
2023/01/26 05:47:45;;;;;;;87.23;34.17;;;2.70;99.90;;;;;;4860521;29;21010;-81
2023/01/26 05:50:12;;;;;;;78.83;32.30;;;2.70;99.90;;;;;;4858791;29;20485;-79
2023/01/26 05:52:37;;;;;;;71.07;30.30;;;2.60;99.90;;;;;;4878720;29;20803;-79
2023/01/26 05:55:05;;;;;;;83.03;34.53;;;2.70;99.90;;;;;;4878878;29;20447;-81
2023/01/26 05:57:31;;;;;;;92.40;34.50;;;2.60;99.90;;;;;;4878159;29;20329;-82
2023/01/26 05:59:56;;;;;;;80.33;34.37;;;2.70;99.90;;;;;;4878285;29;20456;-83
2023/01/26 06:02:22;;;;;;;95.43;33.43;;;2.70;99.90;;;;;;4878631;29;20433;-83
2023/01/26 06:04:48;;;;;;;80.23;31.80;;;2.70;99.90;;;;;;4878588;29;20189;-82
2023/01/26 06:07:14;;;;;;;90.47;36.27;;;2.70;99.90;;;;;;4878276;29;20179;-80
2023/01/26 06:09:40;;;;;;;91.57;34.10;;;2.70;99.90;;;;;;4878756;29;20227;-81
2023/01/26 06:12:11;;;;;;;87.53;37.90;;;2.70;99.90;;;;;;4878784;29;20189;-81
2023/01/26 06:14:36;;;;;;;90.20;33.80;;;2.70;99.90;;;;;;4878460;29;20447;-78
2023/01/26 06:17:02;;;;;;;87.53;35.90;;;2.80;99.90;;;;;;4878243;29;20945;-79
2023/01/26 06:19:27;;;;;;;93.50;37.90;;;2.70;99.90;;;;;;4878065;29;20187;-79
2023/01/26 06:21:53;;;;;;;88.37;35.57;;;2.70;99.90;;;;;;4877591;29;20191;-80
2023/01/26 06:24:19;;;;;;;84.40;34.87;;;2.80;99.90;;;;;;4877986;29;20269;-80
2023/01/26 06:26:47;;;;;;;87.13;40.70;;;2.80;99.90;;;;;;4879085;29;20180;-81
2023/01/26 06:29:13;;;;;;;92.23;37.00;;;2.80;99.90;;;;;;4879048;29;20679;-80
2023/01/26 06:31:38;;;;;;;86.30;33.80;;;2.80;99.90;;;;;;4879093;29;20829;-80
2023/01/26 06:34:04;;;;;;;86.20;35.40;;;2.80;99.90;;;;;;4878979;29;20518;-81
2023/01/26 06:36:30;;;;;;;81.67;33.90;;;2.80;99.90;;;;;;4879131;29;20190;-81
2023/01/26 06:38:55;;;;;;;78.93;34.13;;;2.70;99.90;;;;;;4879119;29;20193;-81
2023/01/26 06:41:21;;;;;;;91.10;33.53;;;2.80;99.90;;;;;;4879174;29;20177;-82
2023/01/26 06:43:47;;;;;;;73.23;34.47;;;2.80;99.90;;;;;;4879459;29;20200;-82
2023/01/26 06:46:14;;;;;;;78.77;32.10;;;2.80;99.90;;;;;;4879271;29;20195;-82
2023/01/26 06:48:39;;;;;;;87.57;34.80;;;2.80;99.90;;;;;;4876185;29;20442;-82
2023/01/26 06:51:14;;;;;;;76.87;33.30;;;2.80;99.90;;;;;;4876700;29;20452;-81
2023/01/26 06:53:42;;;;;;;70.47;31.93;;;2.80;99.90;;;;;;4879120;29;20186;-83
2023/01/26 06:56:07;;;;;;;73.13;32.00;;;2.80;99.90;;;;;;4878938;29;20478;-82
2023/01/26 06:58:33;;;;;;;73.10;30.97;;;2.80;99.90;;;;;;4879095;29;20460;-82
2023/01/26 07:00:59;;;;;;;69.63;30.50;;;2.80;99.90;;;;;;4879050;29;20196;-82
2023/01/26 07:03:25;;;;;;;67.47;29.80;;;2.80;99.90;;;;;;4879120;29;20642;-82
2023/01/26 07:05:50;;;;;;;73.53;27.80;;;2.80;99.90;;;;;;4878856;29;20474;-82
2023/01/26 07:08:16;;;;;;;73.17;29.90;;;2.80;99.90;;;;;;4879281;29;20274;-81
2023/01/26 07:10:41;;;;;;;70.77;31.17;;;2.70;99.90;;;;;;4878782;29;20228;-82
2023/01/26 07:13:07;;;;;;;75.73;31.43;;;2.70;99.90;;;;;;4879177;29;20198;-82
2023/01/26 07:15:33;;;;;;;62.97;27.97;;;2.80;99.90;;;;;;4879132;29;20204;-81
2023/01/26 07:17:59;;;;;;;71.17;30.87;;;2.80;99.90;;;;;;4878761;29;20630;-82
2023/01/26 07:20:24;;;;;;;69.83;27.40;;;2.80;99.90;;;;;;4879231;29;20196;-81
2023/01/26 07:22:50;;;;;;;65.87;29.87;;;2.80;99.90;;;;;;4880638;29;20441;-82
2023/01/26 07:25:17;;;;;;;68.83;28.70;;;2.80;99.90;;;;;;4878890;29;20284;-82
2023/01/26 07:27:43;;;;;;;65.37;26.30;;;2.80;99.90;;;;;;4879071;29;20437;-82
2023/01/26 07:30:11;;;;;;;65.83;26.60;;;2.80;99.90;;;;;;4879284;29;20841;-81
2023/01/26 07:32:36;;;;;;;64.77;27.03;;;2.80;99.90;;;;;;4879581;29;20390;-82
2023/01/26 07:35:02;;;;;;;67.53;27.37;;;2.80;99.90;;;;;;4879724;29;20454;-81
2023/01/26 07:37:29;;;;;;;79.83;28.27;;;2.90;99.90;;;;;;4879232;29;20560;-80
2023/01/26 07:39:54;;;;;;;58.93;25.67;;;2.90;99.90;;;;;;4878308;29;20445;-80
2023/01/26 07:42:20;;;;;;;61.97;25.93;;;2.80;99.90;;;;;;4879093;29;20445;-80
2023/01/26 07:44:45;;;;;;;69.00;27.77;;;2.80;99.90;;;;;;4874665;29;20188;-80
2023/01/26 07:47:11;;;;;;;63.90;27.57;;;2.90;99.90;;;;;;4878971;29;20220;-80
2023/01/26 07:49:36;;;;;;;61.87;25.97;;;2.90;99.90;;;;;;4879247;29;20225;-80
2023/01/26 07:52:03;;;;;;;59.10;24.87;;;2.80;99.90;;;;;;4879241;29;20207;-80
2023/01/26 07:54:28;;;;;;;53.30;24.57;;;2.80;99.90;;;;;;4879025;29;20234;-80
2023/01/26 07:56:54;;;;;;;52.47;22.73;;;2.80;99.90;;;;;;4878647;29;20475;-82
2023/01/26 07:59:20;;;;;;;65.57;27.50;;;2.90;99.90;;;;;;4878490;29;20196;-76
2023/01/26 08:01:49;;;;;;;67.77;28.87;;;2.90;99.90;;;;;;4879630;29;20214;-82
2023/01/26 08:04:15;;;;;;;62.70;25.40;;;2.90;99.90;;;;;;4881746;29;20448;-80
2023/01/26 08:06:40;;;;;;;48.73;22.80;;;2.90;99.90;;;;;;4881893;29;20476;-80
2023/01/26 08:09:06;;;;;;;54.50;25.40;;;2.90;99.90;;;;;;4881557;29;20551;-80
2023/01/26 08:11:31;;;;;;;49.53;22.17;;;2.90;99.90;;;;;;4881529;29;20723;-80
2023/01/26 08:13:57;;;;;;;56.70;23.50;;;2.90;99.90;;;;;;4881246;29;20659;-79
2023/01/26 08:16:22;;;;;;;53.30;25.17;;;2.90;99.90;;;;;;4881275;29;20252;-79
2023/01/26 08:18:48;;;;;;;53.40;25.70;;;2.90;99.90;;;;;;4880524;29;20239;-80
2023/01/26 08:21:15;;;;;;;53.13;24.87;;;2.90;99.90;;;;;;4880939;29;20874;-77
2023/01/26 08:23:41;;;;;;;56.70;26.43;;;2.90;99.90;;;;;;4880731;29;20282;-78
2023/01/26 08:26:10;;;;;;;45.33;22.30;;;2.90;99.90;;;;;;4879861;29;20449;-79
2023/01/26 08:28:35;;;;;;;56.37;22.77;;;2.90;99.90;;;;;;4879905;29;20442;-79
2023/01/26 08:31:06;;;;;;;52.53;25.20;;;2.90;99.90;;;;;;4880067;29;20477;-79
2023/01/26 08:33:33;;;;;;;64.47;29.43;;;2.90;99.90;;;;;;4880251;29;20188;-77
2023/01/26 08:36:04;;;;;;;48.87;23.30;;;2.90;99.90;;;;;;4860792;29;21035;-77
2023/01/26 08:38:30;;;;;;;56.13;24.47;;;2.90;99.90;;;;;;4879783;29;20441;-77
2023/01/26 08:40:57;;;;;;;51.70;22.87;;;3.00;99.90;;;;;;4879098;29;21017;-80
2023/01/26 08:43:22;;;;;;;58.00;24.53;;;3.00;99.90;;;;;;4879830;29;20581;-81
2023/01/26 08:45:48;;;;;;;51.50;24.27;;;3.00;99.90;;;;;;4879490;29;20534;-80
2023/01/26 08:48:13;;;;;;;57.70;23.50;;;3.00;99.90;;;;;;4880223;29;20247;-78
2023/01/26 08:50:39;;;;;;;51.70;24.80;;;3.00;99.90;;;;;;4879730;29;20554;-82
2023/01/26 08:53:05;;;;;;;57.87;22.60;;;3.00;99.90;;;;;;4879877;29;20182;-83
2023/01/26 08:55:31;;;;;;;55.13;23.70;;;3.10;99.90;;;;;;4879747;29;20388;-80
2023/01/26 08:57:57;;;;;;;57.63;24.70;;;3.10;99.90;;;;;;4879392;29;20189;-79
2023/01/26 09:00:23;;;;;;;47.83;22.80;;;3.10;99.90;;;;;;4880111;29;20430;-79
2023/01/26 09:02:56;;;;;;;55.40;24.50;;;3.10;99.90;;;;;;4876378;29;20465;-80
2023/01/26 09:05:22;;;;;;;54.50;24.80;;;3.10;99.90;;;;;;4880688;29;20481;-80
2023/01/26 09:07:47;;;;;;;55.53;26.27;;;3.10;99.90;;;;;;4880742;29;20470;-79
2023/01/26 09:10:13;;;;;;;59.93;25.00;;;3.20;99.90;;;;;;4877942;29;20221;-79
2023/01/26 09:12:38;;;;;;;48.93;23.10;;;3.10;99.90;;;;;;4877035;29;20191;-80
2023/01/26 09:15:05;;;;;;;51.70;24.40;;;3.20;99.90;;;;;;4880165;29;20197;-79
2023/01/26 09:17:30;;;;;;;54.87;22.50;;;3.20;99.90;;;;;;4879731;29;20204;-79
2023/01/26 09:19:56;;;;;;;44.83;22.17;;;3.20;99.90;;;;;;4879918;29;20445;-80
2023/01/26 09:22:21;;;;;;;54.07;23.87;;;3.20;99.90;;;;;;4879945;29;20196;-79
2023/01/26 09:24:47;;;;;;;53.43;24.20;;;3.20;99.90;;;;;;4879850;29;20187;-79
2023/01/26 09:27:13;;;;;;;56.83;25.00;;;3.20;99.90;;;;;;4880378;29;20189;-78
2023/01/26 09:29:38;;;;;;;56.40;21.00;;;3.30;99.90;;;;;;4880045;29;20560;-80
2023/01/26 09:32:04;;;;;;;52.63;24.30;;;3.20;99.90;;;;;;4879801;29;20259;-79
2023/01/26 09:34:30;;;;;;;50.13;21.43;;;3.20;99.90;;;;;;4879777;29;20191;-80
2023/01/26 09:36:55;;;;;;;50.07;22.70;;;3.30;99.90;;;;;;4878920;29;20540;-79
2023/01/26 09:39:22;;;;;;;57.57;23.47;;;3.30;99.90;;;;;;4880103;29;20288;-80
2023/01/26 09:41:55;;;;;;;59.90;25.10;;;3.30;99.90;;;;;;4885488;29;20548;-79
2023/01/26 09:44:25;;;;;;;54.17;23.03;;;3.30;99.90;;;;;;4879612;29;20261;-79
2023/01/26 09:47:00;;;;;;;62.93;25.30;;;3.30;99.90;;;;;;4878023;29;20450;-79
2023/01/26 09:50:01;;;;;;;52.43;26.37;;;3.30;99.90;;;;;;4880247;29;20461;-79
2023/01/26 09:52:31;;;;;;;50.13;22.27;;;3.40;99.90;;;;;;4880261;29;20449;-79
2023/01/26 09:54:58;;;;;;;52.97;24.53;;;3.40;99.90;;;;;;4879187;29;20503;-79
2023/01/26 09:57:32;;;;;;;52.90;24.30;;;3.40;99.90;;;;;;4878054;29;20536;-81
2023/01/26 10:00:04;;;;;;;59.47;24.20;;;3.40;99.90;;;;;;4879394;29;20439;-80
2023/01/26 10:03:00;;;;;;;54.77;22.50;;;3.40;99.90;;;;;;4880932;29;20488;-83
2023/01/26 10:05:47;;;;;;;50.10;24.50;;;3.40;99.90;;;;;;4881413;29;20447;-81
2023/01/26 10:08:16;;;;;;;49.33;22.60;;;3.40;99.90;;;;;;4878589;29;20465;-83
2023/01/26 10:10:49;;;;;;;51.03;24.33;;;3.40;99.90;;;;;;4878206;29;20489;-79
2023/01/26 10:13:16;;;;;;;54.03;26.43;;;3.40;99.90;;;;;;4877939;29;20451;-83
2023/01/26 10:15:46;;;;;;;50.47;23.07;;;3.40;99.90;;;;;;4878001;29;20448;-81
2023/01/26 10:18:36;;;;;;;45.47;21.37;;;3.40;99.90;;;;;;4877992;29;20440;-83
2023/01/26 10:21:04;;;;;;;43.50;22.60;;;3.40;99.90;;;;;;4878092;29;20440;-80
2023/01/26 10:23:33;;;;;;;54.07;22.97;;;3.40;99.90;;;;;;4878334;29;20452;-81
2023/01/26 10:26:12;;;;;;;45.47;22.37;;;3.50;99.90;;;;;;4877367;29;20448;-81
2023/01/26 10:28:38;;;;;;;43.40;22.40;;;3.50;99.90;;;;;;4877169;29;20535;-81
2023/01/26 10:31:11;;;;;;;42.07;20.90;;;3.50;99.90;;;;;;4878396;29;20605;-82
2023/01/26 10:33:38;;;;;;;49.13;24.53;;;3.50;99.90;;;;;;4878570;29;20439;-78
2023/01/26 10:36:06;;;;;;;45.80;20.00;;;3.50;99.90;;;;;;4877768;29;20459;-80
2023/01/26 10:38:31;;;;;;;46.20;21.93;;;3.50;99.90;;;;;;4878161;29;20437;-78
2023/01/26 10:41:02;;;;;;;48.50;21.27;;;3.50;99.90;;;;;;4877639;29;20429;-79
2023/01/26 10:43:30;;;;;;;42.47;20.90;;;3.50;99.90;;;;;;4875763;29;20184;-78
2023/01/26 10:45:55;;;;;;;46.73;22.30;;;3.50;99.90;;;;;;4877947;29;20813;-78
2023/01/26 10:48:25;;;;;;;45.23;21.07;;;3.50;99.90;;;;;;4878422;29;20438;-79
2023/01/26 10:50:51;;;;;;;51.57;21.30;;;3.50;99.90;;;;;;4878315;29;20611;-81
2023/01/26 10:53:22;;;;;;;40.30;19.80;;;3.50;99.90;;;;;;4878154;29;20440;-82
2023/01/26 10:56:03;;;;;;;46.33;22.43;;;3.50;99.90;;;;;;4878157;29;20905;-83
2023/01/26 10:58:53;;;;;;;41.57;20.67;;;3.50;99.90;;;;;;4874058;29;20432;-78
2023/01/26 11:01:26;;;;;;;41.43;20.87;;;3.50;99.90;;;;;;4877385;29;20535;-83
2023/01/26 11:04:09;;;;;;;43.57;20.30;;;3.50;99.90;;;;;;4877496;29;20567;-83
2023/01/26 11:06:34;;;;;;;37.87;20.37;;;3.60;99.90;;;;;;4876414;29;20452;-78
2023/01/26 11:09:10;;;;;;;40.73;20.87;;;3.70;99.90;;;;;;4877848;29;21080;-80
2023/01/26 11:11:36;;;;;;;44.17;20.90;;;4.10;99.90;;;;;;4877389;29;20275;-79
2023/01/26 11:14:18;;;;;;;38.63;21.27;;;4.10;99.90;;;;;;4877605;29;20827;-79
2023/01/26 11:16:55;;;;;;;44.13;19.77;;;4.00;99.90;;;;;;4877746;29;20808;-79
2023/01/26 11:19:51;;;;;;;37.93;19.27;;;3.90;99.90;;;;;;4877494;29;20481;-78
2023/01/26 11:22:39;;;;;;;35.83;19.60;;;3.90;99.90;;;;;;4876967;29;20449;-83
2023/01/26 11:25:16;;;;;;;35.87;17.37;;;3.90;99.90;;;;;;4877340;29;20537;-85
2023/01/26 11:27:52;;;;;;;41.83;17.60;;;3.90;99.90;;;;;;4877605;29;20472;-85
2023/01/26 11:30:38;;;;;;;43.77;18.50;;;3.90;99.90;;;;;;4877366;29;20948;-80
2023/01/26 11:33:21;;;;;;;31.87;17.13;;;3.90;99.90;;;;;;4877665;29;20804;-83
2023/01/26 11:36:14;;;;;;;33.00;16.50;;;3.90;99.90;;;;;;4875479;29;20441;-84
2023/01/26 11:38:42;;;;;;;36.87;17.30;;;3.90;99.90;;;;;;4881659;29;20440;-81
2023/01/26 11:41:56;;;;;;;36.70;16.97;;;4.00;99.90;;;;;;4880207;29;20948;-81
2023/01/26 11:44:34;;;;;;;36.40;17.63;;;3.90;99.90;;;;;;4847315;29;20503;-84
2023/01/26 11:47:16;;;;;;;31.60;16.30;;;4.00;99.90;;;;;;4881640;29;20444;-84
2023/01/26 11:50:13;;;;;;;26.70;14.73;;;4.00;99.90;;;;;;4881075;29;20473;-86
2023/01/26 11:52:51;;;;;;;35.53;16.60;;;4.00;99.90;;;;;;4882029;29;20437;-85
2023/01/26 11:55:30;;;;;;;31.13;16.70;;;4.00;99.90;;;;;;4882069;29;20516;-85
2023/01/26 11:58:26;;;;;;;31.73;17.85;;;4.00;99.90;;;;;;4881451;29;20484;-82
2023/01/26 12:00:56;;;;;;;31.55;19.48;;;4.10;99.90;;;;;;4880039;29;20434;-79
2023/01/26 12:03:45;;;;;;;30.00;15.50;;;4.20;99.90;;;;;;4881846;29;20181;-81
2023/01/26 12:06:41;;;;;;;28.63;15.97;;;4.30;99.90;;;;;;4881656;29;20443;-81
2023/01/26 12:09:25;;;;;;;34.17;17.90;;;4.30;99.90;;;;;;4881191;29;20485;-78
2023/01/26 12:11:56;;;;;;;37.97;14.57;;;4.40;99.90;;;;;;4880928;29;20429;-77
2023/01/26 12:14:59;;;;;;;25.57;14.00;;;4.40;99.90;;;;;;4880723;29;20440;-82
2023/01/26 12:17:43;;;;;;;28.30;16.23;;;4.40;99.90;;;;;;4872201;29;20531;-83
2023/01/26 12:20:23;;;;;;;29.53;14.70;;;4.40;99.90;;;;;;4880954;29;20480;-82
2023/01/26 12:22:53;;;;;;;24.80;14.83;;;4.40;99.90;;;;;;4878502;29;20813;-82
2023/01/26 12:25:31;;;;;;;30.37;16.37;;;4.40;99.90;;;;;;4880684;29;20448;-83
2023/01/26 12:28:00;;;;;;;27.67;14.50;;;4.40;99.90;;;;;;4878937;29;20448;-83
2023/01/26 12:30:39;;;;;;;23.13;13.77;;;4.30;99.90;;;;;;4879332;29;20552;-82
2023/01/26 12:33:07;;;;;;;29.20;15.87;;;4.40;99.90;;;;;;4879715;29;20462;-82
2023/01/26 12:36:20;;;;;;;27.87;14.13;;;4.40;99.90;;;;;;4879915;29;20926;-82
2023/01/26 12:39:02;;;;;;;29.10;15.43;;;4.40;99.90;;;;;;4822080;29;20443;-82
2023/01/26 12:41:50;;;;;;;20.50;12.30;;;4.40;99.90;;;;;;4822463;29;20454;-82
2023/01/26 12:44:21;;;;;;;21.93;11.77;;;4.30;99.90;;;;;;4864536;29;20718;-79
2023/01/26 12:46:53;;;;;;;24.63;12.73;;;4.40;99.90;;;;;;4880977;29;20470;-79
2023/01/26 12:49:44;;;;;;;23.13;14.15;;;4.40;99.90;;;;;;4878134;29;20453;-78
2023/01/26 12:52:17;;;;;;;21.30;11.90;;;4.40;99.90;;;;;;4879852;29;20192;-77
2023/01/26 12:55:12;;;;;;;17.60;10.93;;;4.40;99.90;;;;;;4879464;29;20445;-76
2023/01/26 12:58:02;;;;;;;17.60;10.67;;;4.40;99.90;;;;;;4877881;29;20555;-83
2023/01/26 13:00:32;;;;;;;16.43;9.77;;;4.40;99.90;;;;;;4851029;29;20449;-85
2023/01/26 13:03:17;;;;;;;14.03;9.17;;;4.40;99.90;;;;;;4878670;29;20970;-80
2023/01/26 13:05:54;;;;;;;14.63;9.10;;;4.40;99.90;;;;;;4880010;29;20469;-81
2023/01/26 13:08:29;;;;;;;12.80;8.87;;;4.40;99.90;;;;;;4879376;29;20524;-81
2023/01/26 13:10:55;;;;;;;15.63;9.87;;;4.40;99.90;;;;;;4879385;29;20476;-77
2023/01/26 13:13:31;;;;;;;14.87;9.90;;;4.40;99.90;;;;;;4879956;29;20494;-80
2023/01/26 13:16:30;;;;;;;14.00;8.17;;;4.40;99.90;;;;;;4879765;29;20456;-78
2023/01/26 13:18:58;;;;;;;16.17;9.20;;;4.40;99.90;;;;;;4876857;29;20440;-85
2023/01/26 13:21:42;;;;;;;18.17;8.00;;;4.40;99.90;;;;;;4879727;29;20504;-79
2023/01/26 13:24:17;;;;;;;16.60;8.90;;;4.50;99.90;;;;;;4878836;29;20440;-78
2023/01/26 13:26:48;;;;;;;15.63;10.70;;;4.50;99.90;;;;;;4876485;29;20544;-78
2023/01/26 13:29:33;;;;;;;15.00;8.23;;;4.50;99.90;;;;;;4879083;29;20496;-78
2023/01/26 13:32:07;;;;;;;15.27;9.60;;;4.60;99.90;;;;;;4879131;29;20539;-78
2023/01/26 13:34:43;;;;;;;16.67;11.10;;;4.60;99.90;;;;;;4879323;29;20455;-78
2023/01/26 13:37:45;;;;;;;14.30;10.67;;;4.60;99.90;;;;;;4877979;29;20462;-78
2023/01/26 13:40:22;;;;;;;12.93;8.70;;;4.60;99.90;;;;;;4858448;29;20446;-78
2023/01/26 13:42:59;;;;;;;13.17;9.60;;;4.60;99.90;;;;;;4879398;29;20448;-79
2023/01/26 13:45:43;;;;;;;13.03;8.87;;;4.60;99.90;;;;;;4879677;29;20764;-78
2023/01/26 13:48:15;;;;;;;16.57;9.90;;;4.60;99.90;;;;;;4879088;29;20441;-78
2023/01/26 13:50:41;;;;;;;15.07;9.20;;;4.70;99.90;;;;;;4879104;29;20473;-78
2023/01/26 13:53:34;;;;;;;15.17;8.70;;;4.60;99.90;;;;;;4876382;29;20445;-78
2023/01/26 13:56:02;;;;;;;17.63;8.73;;;4.70;99.90;;;;;;4877624;29;20962;-78
2023/01/26 13:58:27;;;;;;;14.60;9.23;;;4.70;99.90;;;;;;4877735;29;20448;-78
2023/01/26 14:01:01;;;;;;;10.83;8.03;;;4.70;99.90;;;;;;4878720;29;20438;-78
2023/01/26 14:03:29;;;;;;;12.43;8.20;;;4.70;99.90;;;;;;4878627;29;20441;-80
2023/01/26 14:06:19;;;;;;;12.90;8.77;;;4.70;99.90;;;;;;4878475;29;20233;-78
2023/01/26 14:08:55;;;;;;;11.50;6.50;;;4.70;99.90;;;;;;4878480;29;20440;-78
2023/01/26 14:11:25;;;;;;;13.07;9.00;;;4.70;99.90;;;;;;4878837;29;20450;-77
2023/01/26 14:13:58;;;;;;;14.77;8.43;;;4.70;99.90;;;;;;4878067;29;20527;-86
2023/01/26 14:16:35;;;;;;;11.63;8.27;;;4.70;99.90;;;;;;4878307;29;20612;-75
2023/01/26 14:19:17;;;;;;;13.90;9.03;;;4.60;99.90;;;;;;4876112;29;20440;-78
2023/01/26 14:21:58;;;;;;;13.43;7.27;;;4.60;99.90;;;;;;4877970;29;20449;-77
2023/01/26 14:24:31;;;;;;;22.33;7.93;;;4.60;99.90;;;;;;4877303;29;20448;-76
2023/01/26 14:26:57;;;;;;;21.70;9.73;;;4.60;99.90;;;;;;4876446;29;20451;-85
2023/01/26 14:29:25;;;;;;;21.77;10.33;;;4.60;99.90;;;;;;4879287;29;20836;-81
2023/01/26 14:31:54;;;;;;;16.03;10.00;;;4.60;99.90;;;;;;4878343;29;20257;-76
2023/01/26 14:34:23;;;;;;;15.27;9.73;;;4.70;99.90;;;;;;4878590;29;20536;-76
2023/01/26 14:37:10;;;;;;;15.53;10.70;;;4.70;99.90;;;;;;4877714;29;20472;-75
2023/01/26 14:39:36;;;;;;;24.20;10.63;;;4.70;99.90;;;;;;4877857;29;20476;-77
2023/01/26 14:42:02;;;;;;;19.77;11.70;;;4.70;99.90;;;;;;4877865;29;21018;-74
2023/01/26 14:44:28;;;;;;;25.23;10.23;;;4.70;99.90;;;;;;4878261;29;20235;-75
2023/01/26 14:47:19;;;;;;;19.80;11.70;;;4.70;99.90;;;;;;4877844;29;20468;-75
2023/01/26 14:50:01;;;;;;;25.67;11.60;;;4.70;99.90;;;;;;4876539;29;20517;-75
2023/01/26 14:52:34;;;;;;;21.20;11.90;;;4.60;99.90;;;;;;4877588;29;20796;-77
2023/01/26 14:55:26;;;;;;;21.60;11.07;;;4.80;99.90;;;;;;4876089;29;20442;-75
2023/01/26 14:57:53;;;;;;;19.57;11.13;;;4.70;99.90;;;;;;4877696;29;20449;-76
2023/01/26 15:00:26;;;;;;;19.70;11.87;;;4.60;99.90;;;;;;4878063;29;20476;-75
2023/01/26 15:02:55;;;;;;;23.70;12.97;;;4.60;99.90;;;;;;4877928;29;20482;-75
2023/01/26 15:05:29;;;;;;;28.77;12.60;;;4.60;99.90;;;;;;4878313;29;20480;-75